Friedman Memorial Airport Hailey US
ICAO: KSUN
IATA: SUN
Category: Medium
Scheduled Services: Yes

Elevation: 5318 ft
TransAlt. 18000 ft.

Airport Communications:
ATIS:128.225
AWOS:128.225
SALT LAKE CITY CNTR:118.05
CTAF:125.6
GND:121.7
BOISE RDO:122.4
HAILEY TWR:125.6
UNICOM:122.95

KSUN Zoom In..

Runways:

(A) RW 13 length 7550 ft width 100 ft
---- / hdg 129

(B) RW 31 length 7550 ft width 100 ft
---- / hdg 309

Location; KSUN
Day. 23 / Time. 09.55 Zulu
* Altimeter: 30.30
* Temperature: 14° c. 57.2°f.
* Wind from: 300° Speed 10 kn.
Dewpoint: -01° c.
Visibility: 10 Statute Miles.
Clouds: Clear (automated report).

KSUN 230955Z AUTO 30010KT 10SM CLR 14/M01 A3030 RMK AO2


Wind From 300°
Speed 10 kn.

 
 
jpsmedia.com for Web Design worldairports.se 2018   terms of use